Time;durP1;ratioP1;P1;durP2;ratioP2;P2;SDS_P1;SDS_P2;PMS_P1;PMS_P2;Temp;Humidity;BMP_temperature;BMP_pressure;BME280_temperature;BME280_humidity;BME280_pressure;Samples;Min_cycle;Max_cycle;Signal;HPM_P1;HPM_P2
2020/12/28 00:03:53;;;;;;;19.42;8.07;;;;;;;;;;8127599;28;20085;-72
2020/12/28 00:07:56;;;;;;;23.27;11.05;;;;;;;;;;8127058;28;20465;-72
2020/12/28 00:12:00;;;;;;;16.67;7.43;;;;;;;;;;8127495;28;20505;-72
2020/12/28 00:16:03;;;;;;;19.00;9.23;;;;;;;;;;8126008;28;20512;-72
2020/12/28 00:20:06;;;;;;;21.25;7.78;;;;;;;;;;8127542;28;20351;-72
2020/12/28 00:24:10;;;;;;;22.20;10.60;;;;;;;;;;8130178;28;20389;-72
2020/12/28 00:28:13;;;;;;;22.88;10.77;;;;;;;;;;8133291;28;20073;-72
2020/12/28 00:32:17;;;;;;;17.83;9.30;;;;;;;;;;8132908;28;20386;-72
2020/12/28 00:36:20;;;;;;;15.52;7.78;;;;;;;;;;8133269;28;20504;-72
2020/12/28 00:40:23;;;;;;;20.67;8.93;;;;;;;;;;8132753;28;20359;-72
2020/12/28 00:44:26;;;;;;;30.77;15.93;;;;;;;;;;8132666;28;20481;-72
2020/12/28 00:48:29;;;;;;;21.30;10.50;;;;;;;;;;8130991;28;20393;-72
2020/12/28 00:52:33;;;;;;;27.73;13.00;;;;;;;;;;8131395;28;20366;-72
2020/12/28 00:56:37;;;;;;;31.65;15.90;;;;;;;;;;8131957;28;20074;-72
2020/12/28 01:00:41;;;;;;;17.75;7.80;;;;;;;;;;8131216;28;20470;-72
2020/12/28 01:04:44;;;;;;;29.50;12.80;;;;;;;;;;8132670;28;20371;-72
2020/12/28 01:08:52;;;;;;;39.33;17.60;;;;;;;;;;8114497;28;20500;-72
2020/12/28 01:12:56;;;;;;;41.42;21.15;;;;;;;;;;8114992;28;20389;-72
2020/12/28 01:17:00;;;;;;;13.60;7.13;;;;;;;;;;8130222;28;20370;-72
2020/12/28 01:21:03;;;;;;;15.00;6.35;;;;;;;;;;8130452;28;20369;-72
2020/12/28 01:25:17;;;;;;;20.20;7.60;;;;;;;;;;8130449;28;20373;-72
2020/12/28 01:29:31;;;;;;;12.88;5.80;;;;;;;;;;8129708;28;20386;-72
2020/12/28 01:33:36;;;;;;;14.95;5.90;;;;;;;;;;8131665;28;20058;-72
2020/12/28 01:37:39;;;;;;;12.70;5.35;;;;;;;;;;8113339;28;20046;-72
2020/12/28 01:41:42;;;;;;;15.52;6.07;;;;;;;;;;8129230;28;20390;-72
2020/12/28 01:45:45;;;;;;;25.95;11.95;;;;;;;;;;8129171;28;20373;-72
2020/12/28 01:49:53;;;;;;;11.15;4.65;;;;;;;;;;8129748;28;20484;-71
2020/12/28 01:53:57;;;;;;;14.60;6.50;;;;;;;;;;8128658;28;20054;-71
2020/12/28 01:58:15;;;;;;;25.23;10.60;;;;;;;;;;8130735;28;20458;-72
2020/12/28 02:02:21;;;;;;;62.90;22.45;;;;;;;;;;8129023;28;20466;-72
2020/12/28 02:06:25;;;;;;;35.42;14.57;;;;;;;;;;8128263;28;20504;-71
2020/12/28 02:10:29;;;;;;;23.63;10.60;;;;;;;;;;8113254;28;20462;-71
2020/12/28 02:14:34;;;;;;;33.08;14.00;;;;;;;;;;8128729;28;20478;-72
2020/12/28 02:18:59;;;;;;;26.42;12.82;;;;;;;;;;8128221;28;20047;-72
2020/12/28 02:23:05;;;;;;;25.10;12.77;;;;;;;;;;8113309;28;20466;-72
2020/12/28 02:27:09;;;;;;;8.77;4.15;;;;;;;;;;8128344;28;20477;-71
2020/12/28 02:31:11;;;;;;;16.15;8.27;;;;;;;;;;8129200;28;20487;-71
2020/12/28 02:35:48;;;;;;;7.65;3.78;;;;;;;;;;8127800;28;20121;-71
2020/12/28 02:39:52;;;;;;;5.22;3.10;;;;;;;;;;8127697;28;20473;-72
2020/12/28 02:43:56;;;;;;;17.35;8.05;;;;;;;;;;8127556;28;20478;-72
2020/12/28 02:48:19;;;;;;;17.42;9.00;;;;;;;;;;8128465;28;20047;-72
2020/12/28 02:52:44;;;;;;;5.68;2.72;;;;;;;;;;8129199;28;20359;-71
2020/12/28 02:57:07;;;;;;;9.70;3.83;;;;;;;;;;8128356;28;20474;-72
2020/12/28 03:01:29;;;;;;;5.38;2.50;;;;;;;;;;8129138;28;20409;-71
2020/12/28 03:05:51;;;;;;;5.80;2.85;;;;;;;;;;8128697;28;20478;-71
2020/12/28 03:10:13;;;;;;;4.35;2.35;;;;;;;;;;8128870;28;20050;-72
2020/12/28 03:14:34;;;;;;;5.00;2.15;;;;;;;;;;8128515;28;20402;-72
2020/12/28 03:18:56;;;;;;;3.72;1.95;;;;;;;;;;8127381;28;20454;-72
2020/12/28 03:23:18;;;;;;;4.32;1.90;;;;;;;;;;8128825;28;20393;-72
2020/12/28 03:27:40;;;;;;;3.22;1.70;;;;;;;;;;8127944;28;20478;-71
2020/12/28 03:32:03;;;;;;;4.40;1.83;;;;;;;;;;8128165;28;20381;-72
2020/12/28 03:36:24;;;;;;;4.93;1.58;;;;;;;;;;8128530;28;20361;-72
2020/12/28 03:40:46;;;;;;;5.68;3.20;;;;;;;;;;8127991;28;20396;-72
2020/12/28 03:45:08;;;;;;;5.10;2.30;;;;;;;;;;8128010;28;20386;-72
2020/12/28 03:49:30;;;;;;;6.03;3.60;;;;;;;;;;8128007;28;20055;-72
2020/12/28 03:53:52;;;;;;;14.52;7.07;;;;;;;;;;8127792;28;20382;-72
2020/12/28 03:58:14;;;;;;;33.55;12.68;;;;;;;;;;8129465;28;20377;-72
2020/12/28 04:02:38;;;;;;;19.10;10.10;;;;;;;;;;8132635;28;20043;-72
2020/12/28 04:07:17;;;;;;;8.93;4.57;;;;;;;;;;8130428;28;20382;-72
2020/12/28 04:11:39;;;;;;;8.10;4.30;;;;;;;;;;8134182;28;20405;-72
2020/12/28 04:15:51;;;;;;;5.85;3.38;;;;;;;;;;8132630;28;20418;-72
2020/12/28 04:19:54;;;;;;;15.65;7.35;;;;;;;;;;8132335;28;20043;-72
2020/12/28 04:23:57;;;;;;;11.55;5.95;;;;;;;;;;8132940;28;20387;-72
2020/12/28 04:28:01;;;;;;;12.70;5.97;;;;;;;;;;8133062;28;20414;-72
2020/12/28 04:32:04;;;;;;;8.07;4.05;;;;;;;;;;8133062;28;20389;-72
2020/12/28 04:36:07;;;;;;;38.92;13.85;;;;;;;;;;8131061;28;20414;-72
2020/12/28 04:40:10;;;;;;;10.25;5.22;;;;;;;;;;8117435;28;20394;-72
2020/12/28 04:44:14;;;;;;;17.58;7.93;;;;;;;;;;8132700;28;20474;-72
2020/12/28 04:48:17;;;;;;;4.07;2.28;;;;;;;;;;8131593;28;20469;-72
2020/12/28 04:52:20;;;;;;;5.05;2.10;;;;;;;;;;8131063;28;20402;-72
2020/12/28 04:56:24;;;;;;;8.60;4.03;;;;;;;;;;8132702;28;20466;-72
2020/12/28 05:00:27;;;;;;;7.70;4.13;;;;;;;;;;8132837;28;20453;-72
2020/12/28 05:04:30;;;;;;;5.18;2.92;;;;;;;;;;8132249;28;20355;-72
2020/12/28 05:08:34;;;;;;;8.38;3.05;;;;;;;;;;8130783;28;20481;-72
2020/12/28 05:12:37;;;;;;;9.20;3.90;;;;;;;;;;8129652;28;20385;-72
2020/12/28 05:16:40;;;;;;;5.07;2.33;;;;;;;;;;8131790;28;20477;-72
2020/12/28 05:20:46;;;;;;;18.20;5.90;;;;;;;;;;8106694;28;20495;-72
2020/12/28 05:24:52;;;;;;;4.53;2.08;;;;;;;;;;8164649;28;20386;-72
2020/12/28 05:28:58;;;;;;;12.25;4.35;;;;;;;;;;8121093;28;20423;-72
2020/12/28 05:33:05;;;;;;;27.63;7.78;;;;;;;;;;8161611;28;20471;-72
2020/12/28 05:37:09;;;;;;;6.22;2.92;;;;;;;;;;8163093;28;20417;-72
2020/12/28 05:41:12;;;;;;;5.80;2.45;;;;;;;;;;8161616;28;20377;-72
2020/12/28 05:45:17;;;;;;;6.43;2.60;;;;;;;;;;8163211;28;20397;-72
2020/12/28 05:49:21;;;;;;;13.20;6.43;;;;;;;;;;8161215;28;20534;-73
2020/12/28 05:53:26;;;;;;;6.75;3.28;;;;;;;;;;8127482;28;20464;-72
2020/12/28 05:57:30;;;;;;;24.80;7.75;;;;;;;;;;8177526;28;20050;-72
2020/12/28 06:01:38;;;;;;;8.30;3.83;;;;;;;;;;8162421;28;20359;-72
2020/12/28 06:05:47;;;;;;;10.02;4.28;;;;;;;;;;8160777;28;20389;-72
2020/12/28 06:09:57;;;;;;;8.75;3.30;;;;;;;;;;8160463;28;20385;-72
2020/12/28 06:14:00;;;;;;;5.40;2.10;;;;;;;;;;8161720;28;20474;-73
2020/12/28 06:18:03;;;;;;;5.32;3.13;;;;;;;;;;8128363;28;20046;-73
2020/12/28 06:22:23;;;;;;;9.43;4.47;;;;;;;;;;8161322;28;20465;-72
2020/12/28 06:26:27;;;;;;;6.45;2.65;;;;;;;;;;8161778;28;20488;-73
2020/12/28 06:30:30;;;;;;;5.72;2.20;;;;;;;;;;8161146;28;20454;-73
2020/12/28 06:34:35;;;;;;;4.88;2.42;;;;;;;;;;8160743;28;20081;-72
2020/12/28 06:38:38;;;;;;;8.93;3.97;;;;;;;;;;8161610;28;20370;-73
2020/12/28 06:42:41;;;;;;;10.20;5.20;;;;;;;;;;8160904;28;20434;-73
2020/12/28 06:46:45;;;;;;;5.32;2.85;;;;;;;;;;8161031;28;20076;-73
2020/12/28 06:50:55;;;;;;;6.50;3.10;;;;;;;;;;8160312;28;20604;-73
2020/12/28 06:55:11;;;;;;;9.02;4.00;;;;;;;;;;8160863;28;20077;-72
2020/12/28 06:59:14;;;;;;;6.35;2.88;;;;;;;;;;8159175;28;20410;-72
2020/12/28 07:03:18;;;;;;;10.13;4.38;;;;;;;;;;8160630;28;20077;-72
2020/12/28 07:07:21;;;;;;;8.30;3.60;;;;;;;;;;8160436;28;20507;-72
2020/12/28 07:11:24;;;;;;;6.28;2.78;;;;;;;;;;8160719;28;20377;-72
2020/12/28 07:15:28;;;;;;;2.78;1.90;;;;;;;;;;8159762;28;20454;-72
2020/12/28 07:19:33;;;;;;;5.57;2.25;;;;;;;;;;8123882;28;20511;-72
2020/12/28 07:23:37;;;;;;;5.28;2.17;;;;;;;;;;8158636;28;20381;-71
2020/12/28 07:27:42;;;;;;;24.25;8.80;;;;;;;;;;8159739;28;20499;-72
2020/12/28 07:31:46;;;;;;;9.15;3.85;;;;;;;;;;8159687;28;20429;-72
2020/12/28 07:35:49;;;;;;;10.55;3.67;;;;;;;;;;8158969;28;20481;-72
2020/12/28 07:39:52;;;;;;;6.45;3.25;;;;;;;;;;8159956;28;20496;-72
2020/12/28 07:43:58;;;;;;;6.53;2.50;;;;;;;;;;8159546;28;20462;-71
2020/12/28 07:48:09;;;;;;;5.00;2.35;;;;;;;;;;8153798;28;20538;-73
2020/12/28 07:52:15;;;;;;;5.60;2.30;;;;;;;;;;8135148;28;20412;-72
2020/12/28 07:56:47;;;;;;;5.95;2.50;;;;;;;;;;8141322;28;20481;-72
2020/12/28 08:01:01;;;;;;;7.28;3.03;;;;;;;;;;8031553;28;20062;-72
2020/12/28 08:05:05;;;;;;;6.53;2.70;;;;;;;;;;8139606;28;20527;-72
2020/12/28 08:09:09;;;;;;;7.50;3.80;;;;;;;;;;8155151;28;20477;-72
2020/12/28 08:13:20;;;;;;;8.68;4.38;;;;;;;;;;8154857;28;20047;-72
2020/12/28 08:17:25;;;;;;;13.00;7.15;;;;;;;;;;8140214;28;20417;-72
2020/12/28 08:21:57;;;;;;;258.52;68.68;;;;;;;;;;8153464;28;20503;-72
2020/12/28 08:26:03;;;;;;;96.47;34.08;;;;;;;;;;8133988;28;20465;-73
2020/12/28 08:30:08;;;;;;;89.18;36.25;;;;;;;;;;8152903;28;20072;-73
2020/12/28 08:34:15;;;;;;;51.40;24.55;;;;;;;;;;8100681;28;20065;-74
2020/12/28 08:38:30;;;;;;;13.32;7.47;;;;;;;;;;8127247;28;20047;-74
2020/12/28 08:42:34;;;;;;;13.80;6.32;;;;;;;;;;8125296;28;20381;-74
2020/12/28 08:46:38;;;;;;;9.35;4.68;;;;;;;;;;8130224;28;20469;-74
2020/12/28 08:50:41;;;;;;;7.10;3.88;;;;;;;;;;8146872;28;20478;-73
2020/12/28 08:55:00;;;;;;;8.68;3.53;;;;;;;;;;8132120;28;20073;-74
2020/12/28 08:59:04;;;;;;;7.15;3.45;;;;;;;;;;7991163;28;20462;-73
2020/12/28 09:03:09;;;;;;;12.40;5.75;;;;;;;;;;8083638;28;20386;-74
2020/12/28 09:07:14;;;;;;;8.13;4.57;;;;;;;;;;8130112;28;20081;-74
2020/12/28 09:11:17;;;;;;;9.73;5.43;;;;;;;;;;8131102;28;20050;-73
2020/12/28 09:15:20;;;;;;;10.02;5.30;;;;;;;;;;8128805;28;20481;-74
2020/12/28 09:19:23;;;;;;;8.65;4.57;;;;;;;;;;8128941;28;20381;-73
2020/12/28 09:23:26;;;;;;;10.95;5.60;;;;;;;;;;8043436;28;20382;-74
2020/12/28 09:27:29;;;;;;;6.57;3.60;;;;;;;;;;8138269;28;20505;-74
2020/12/28 09:31:33;;;;;;;8.52;4.05;;;;;;;;;;8132024;28;20486;-73
2020/12/28 09:35:37;;;;;;;6.60;3.00;;;;;;;;;;8129708;28;20397;-74
2020/12/28 09:39:40;;;;;;;8.07;3.90;;;;;;;;;;8130118;28;20492;-73
2020/12/28 09:43:44;;;;;;;6.68;3.03;;;;;;;;;;7453247;28;10001926;-74
2020/12/28 09:47:47;;;;;;;6.22;3.30;;;;;;;;;;5063064;28;20002913;-73
2020/12/28 09:51:54;;;;;;;5.72;2.67;;;;;;;;;;8130762;28;20501;-73
2020/12/28 09:55:57;;;;;;;3.97;2.45;;;;;;;;;;8130531;28;20517;-74
2020/12/28 10:00:00;;;;;;;4.97;3.05;;;;;;;;;;8130344;28;20076;-75
2020/12/28 10:04:03;;;;;;;4.97;2.65;;;;;;;;;;8130794;28;20062;-74
2020/12/28 10:08:06;;;;;;;4.22;2.60;;;;;;;;;;8128376;28;20380;-75
2020/12/28 10:12:10;;;;;;;5.38;2.90;;;;;;;;;;8130033;28;20414;-73
2020/12/28 10:16:13;;;;;;;6.35;3.13;;;;;;;;;;8130265;28;20458;-74
2020/12/28 10:20:16;;;;;;;5.05;3.30;;;;;;;;;;8130229;28;20055;-73
2020/12/28 10:24:25;;;;;;;3.35;2.10;;;;;;;;;;8129606;28;20485;-74
2020/12/28 10:28:28;;;;;;;8.30;3.38;;;;;;;;;;8129510;28;20177;-73
2020/12/28 10:32:31;;;;;;;6.88;3.70;;;;;;;;;;8128189;28;20378;-73
2020/12/28 10:36:34;;;;;;;7.93;3.72;;;;;;;;;;8129547;28;20050;-73
2020/12/28 10:40:43;;;;;;;19.50;7.45;;;;;;;;;;8129156;28;20351;-73
2020/12/28 10:44:46;;;;;;;10.68;4.18;;;;;;;;;;8129476;28;20478;-73
2020/12/28 10:48:50;;;;;;;5.80;2.95;;;;;;;;;;8129502;28;20063;-73
2020/12/28 10:52:53;;;;;;;7.75;3.45;;;;;;;;;;8110936;28;20477;-73
2020/12/28 10:56:56;;;;;;;7.90;3.83;;;;;;;;;;8128407;28;20418;-74
2020/12/28 11:00:59;;;;;;;6.78;3.15;;;;;;;;;;8128514;28;20374;-74
2020/12/28 11:05:02;;;;;;;9.57;3.92;;;;;;;;;;8127407;28;20488;-74
2020/12/28 11:09:05;;;;;;;8.35;3.75;;;;;;;;;;8127917;28;20478;-73
2020/12/28 11:13:08;;;;;;;7.72;4.00;;;;;;;;;;8128730;28;20444;-73
2020/12/28 11:17:14;;;;;;;9.60;3.50;;;;;;;;;;8126645;28;20394;-74
2020/12/28 11:21:17;;;;;;;11.85;4.03;;;;;;;;;;8124572;28;20354;-73
2020/12/28 11:25:20;;;;;;;6.22;3.53;;;;;;;;;;8123971;28;20058;-73
2020/12/28 11:29:27;;;;;;;11.25;4.70;;;;;;;;;;8123980;28;20397;-74
2020/12/28 11:33:32;;;;;;;6.88;3.80;;;;;;;;;;8156086;28;20491;-73
2020/12/28 11:37:37;;;;;;;10.23;4.03;;;;;;;;;;8153232;28;20054;-74
2020/12/28 11:41:41;;;;;;;9.05;4.35;;;;;;;;;;8152595;28;20057;-73
2020/12/28 11:45:44;;;;;;;7.75;3.78;;;;;;;;;;8155750;28;20405;-73
2020/12/28 11:49:48;;;;;;;8.23;4.07;;;;;;;;;;8155511;28;20363;-73
2020/12/28 11:53:52;;;;;;;7.13;3.55;;;;;;;;;;8139096;28;20366;-73
2020/12/28 11:57:58;;;;;;;9.70;4.43;;;;;;;;;;8170009;28;20408;-73
2020/12/28 12:02:01;;;;;;;9.23;4.40;;;;;;;;;;8189730;28;20431;-73
2020/12/28 12:06:05;;;;;;;9.05;4.30;;;;;;;;;;8173959;28;20482;-75
2020/12/28 12:10:08;;;;;;;12.20;4.65;;;;;;;;;;8159433;28;20507;-74
2020/12/28 12:14:12;;;;;;;12.38;5.07;;;;;;;;;;8156729;28;20366;-74
2020/12/28 12:18:32;;;;;;;6.97;3.78;;;;;;;;;;8144208;28;20113;-74
2020/12/28 12:22:36;;;;;;;10.27;3.85;;;;;;;;;;8163682;28;20377;-74
2020/12/28 12:26:39;;;;;;;7.20;3.47;;;;;;;;;;8164956;28;20381;-74
2020/12/28 12:30:42;;;;;;;7.97;3.50;;;;;;;;;;8165169;28;20374;-74
2020/12/28 12:34:45;;;;;;;8.50;5.22;;;;;;;;;;8163695;28;20465;-73
2020/12/28 12:38:48;;;;;;;12.25;6.38;;;;;;;;;;8165020;28;20409;-74
2020/12/28 12:42:52;;;;;;;5.47;2.50;;;;;;;;;;8164447;28;20366;-73
2020/12/28 12:46:55;;;;;;;4.43;2.28;;;;;;;;;;8146493;28;20516;-73
2020/12/28 12:50:58;;;;;;;3.28;1.52;;;;;;;;;;8164526;28;20384;-74
2020/12/28 12:55:02;;;;;;;6.50;2.92;;;;;;;;;;8155836;28;20050;-73
2020/12/28 12:59:06;;;;;;;5.93;1.80;;;;;;;;;;8161082;28;20416;-74
2020/12/28 13:03:09;;;;;;;2.95;1.75;;;;;;;;;;8152624;28;20483;-72
2020/12/28 13:07:12;;;;;;;8.65;3.10;;;;;;;;;;8159297;28;20046;-72
2020/12/28 13:11:15;;;;;;;6.45;3.45;;;;;;;;;;8158717;28;20351;-73
2020/12/28 13:15:18;;;;;;;4.93;2.33;;;;;;;;;;8163379;28;20405;-73
2020/12/28 13:19:21;;;;;;;3.50;1.70;;;;;;;;;;8148126;28;20454;-73
2020/12/28 13:23:24;;;;;;;3.22;1.60;;;;;;;;;;8157637;28;20728;-73
2020/12/28 13:27:29;;;;;;;4.78;2.50;;;;;;;;;;8155935;28;20389;-72
2020/12/28 13:31:32;;;;;;;4.18;1.85;;;;;;;;;;8145988;28;20108;-73
2020/12/28 13:35:35;;;;;;;7.65;2.92;;;;;;;;;;8144028;28;20457;-73
2020/12/28 13:39:41;;;;;;;5.70;2.60;;;;;;;;;;8136852;28;20385;-73
2020/12/28 13:43:44;;;;;;;6.95;4.80;;;;;;;;;;8137764;28;20061;-73
2020/12/28 13:47:48;;;;;;;2.53;1.50;;;;;;;;;;8143686;28;20363;-73
2020/12/28 13:51:51;;;;;;;2.70;1.70;;;;;;;;;;8148605;28;20405;-73
2020/12/28 13:55:54;;;;;;;3.15;1.65;;;;;;;;;;8160300;28;20081;-73
2020/12/28 13:59:58;;;;;;;3.13;1.90;;;;;;;;;;8145881;28;20524;-73
2020/12/28 14:04:02;;;;;;;3.88;1.95;;;;;;;;;;8152682;28;20511;-73
2020/12/28 14:08:04;;;;;;;4.03;1.73;;;;;;;;;;8155952;28;20385;-73
2020/12/28 14:12:08;;;;;;;6.43;2.58;;;;;;;;;;8116721;28;20474;-73
2020/12/28 14:16:13;;;;;;;6.50;2.35;;;;;;;;;;8108492;28;20493;-73
2020/12/28 14:20:16;;;;;;;3.80;2.13;;;;;;;;;;8127360;28;20933;-73
2020/12/28 14:24:19;;;;;;;11.88;6.03;;;;;;;;;;8133171;28;20484;-75
2020/12/28 14:28:26;;;;;;;5.65;2.53;;;;;;;;;;8155587;28;20453;-73
2020/12/28 14:32:30;;;;;;;9.98;4.10;;;;;;;;;;8159732;28;20373;-73
2020/12/28 14:36:34;;;;;;;11.05;3.05;;;;;;;;;;8137252;28;20519;-75
2020/12/28 14:40:37;;;;;;;11.30;4.30;;;;;;;;;;8149911;28;20385;-74
2020/12/28 14:44:43;;;;;;;19.15;6.82;;;;;;;;;;8157252;28;20054;-73
2020/12/28 14:48:47;;;;;;;92.50;22.08;;;;;;;;;;8150441;28;20081;-74
2020/12/28 14:52:50;;;;;;;169.52;38.60;;;;;;;;;;8130677;28;20465;-73
2020/12/28 14:56:53;;;;;;;149.98;37.70;;;;;;;;;;8151798;28;20466;-73
2020/12/28 15:01:00;;;;;;;97.43;25.27;;;;;;;;;;8152630;28;20503;-72
2020/12/28 15:05:07;;;;;;;262.05;63.78;;;;;;;;;;8149583;28;20386;-73
2020/12/28 15:09:10;;;;;;;32.05;11.73;;;;;;;;;;8154822;28;20381;-73
2020/12/28 15:13:13;;;;;;;35.38;14.13;;;;;;;;;;8133059;28;20458;-75
2020/12/28 15:17:17;;;;;;;21.15;9.60;;;;;;;;;;8163340;28;20385;-73
2020/12/28 15:21:20;;;;;;;76.53;25.80;;;;;;;;;;8157958;28;20073;-72
2020/12/28 15:25:24;;;;;;;53.47;20.30;;;;;;;;;;8154929;28;20374;-72
2020/12/28 15:29:27;;;;;;;54.40;20.08;;;;;;;;;;8157452;28;20351;-72
2020/12/28 15:33:30;;;;;;;12.30;7.32;;;;;;;;;;8152743;28;20050;-72
2020/12/28 15:37:54;;;;;;;9.02;3.75;;;;;;;;;;8155225;28;20380;-73
2020/12/28 15:41:57;;;;;;;7.57;3.22;;;;;;;;;;8142742;28;20076;-74
2020/12/28 15:46:00;;;;;;;8.13;3.22;;;;;;;;;;8147645;28;20558;-72
2020/12/28 15:50:04;;;;;;;7.72;3.03;;;;;;;;;;8158465;28;20460;-74
2020/12/28 15:54:08;;;;;;;6.80;2.70;;;;;;;;;;8152192;28;20054;-74
2020/12/28 15:58:11;;;;;;;8.82;4.03;;;;;;;;;;8152537;28;20485;-73
2020/12/28 16:02:17;;;;;;;52.08;17.42;;;;;;;;;;8140904;28;20476;-73
2020/12/28 16:06:20;;;;;;;69.53;23.50;;;;;;;;;;8153384;28;20042;-73
2020/12/28 16:10:23;;;;;;;65.38;25.38;;;;;;;;;;8151438;28;20346;-73
2020/12/28 16:14:26;;;;;;;56.25;21.80;;;;;;;;;;8141211;28;20554;-71
2020/12/28 16:18:30;;;;;;;92.57;35.47;;;;;;;;;;8153132;28;20404;-72
2020/12/28 16:22:33;;;;;;;61.20;26.95;;;;;;;;;;8141001;28;20038;-72
2020/12/28 16:26:36;;;;;;;23.55;9.35;;;;;;;;;;8133476;28;20373;-71
2020/12/28 16:30:39;;;;;;;12.45;5.53;;;;;;;;;;8138037;28;20501;-71
2020/12/28 16:34:43;;;;;;;13.15;5.78;;;;;;;;;;8154152;28;20492;-73
2020/12/28 16:38:49;;;;;;;12.38;4.63;;;;;;;;;;8142529;28;20610;-73
2020/12/28 16:42:53;;;;;;;13.52;4.50;;;;;;;;;;8137887;28;20381;-73
2020/12/28 16:47:00;;;;;;;7.75;3.15;;;;;;;;;;8134649;28;20477;-72
2020/12/28 16:51:04;;;;;;;8.48;4.22;;;;;;;;;;8136489;28;20413;-73
2020/12/28 16:55:08;;;;;;;215.52;44.40;;;;;;;;;;8149270;28;20481;-73
2020/12/28 16:59:11;;;;;;;70.43;20.58;;;;;;;;;;8159883;28;20365;-73
2020/12/28 17:03:14;;;;;;;14.93;5.88;;;;;;;;;;8161141;28;20073;-73
2020/12/28 17:07:17;;;;;;;52.28;12.40;;;;;;;;;;8156650;28;20080;-72
2020/12/28 17:11:20;;;;;;;8.68;4.00;;;;;;;;;;8159511;28;20385;-74
2020/12/28 17:15:25;;;;;;;10.35;4.72;;;;;;;;;;8160713;28;20568;-73
2020/12/28 17:19:31;;;;;;;28.40;7.45;;;;;;;;;;8160117;28;20058;-73
2020/12/28 17:23:35;;;;;;;157.90;29.45;;;;;;;;;;8147749;28;20488;-72
2020/12/28 17:27:38;;;;;;;92.68;21.55;;;;;;;;;;8159647;28;20515;-73
2020/12/28 17:31:42;;;;;;;508.00;95.75;;;;;;;;;;8156405;28;20054;-72
2020/12/28 17:35:45;;;;;;;638.60;136.50;;;;;;;;;;8158405;28;20366;-73
2020/12/28 17:39:48;;;;;;;51.97;15.18;;;;;;;;;;8159640;28;20050;-73
2020/12/28 17:43:53;;;;;;;177.30;32.92;;;;;;;;;;8160962;28;20046;-73
2020/12/28 17:47:57;;;;;;;1023.97;297.13;;;;;;;;;;8147130;28;20386;-73
2020/12/28 17:52:00;;;;;;;632.70;171.90;;;;;;;;;;8148951;28;20077;-73
2020/12/28 17:56:03;;;;;;;790.10;224.32;;;;;;;;;;8160337;28;20381;-73
2020/12/28 18:00:07;;;;;;;347.42;80.57;;;;;;;;;;8160661;28;20466;-73
2020/12/28 18:04:17;;;;;;;469.65;95.38;;;;;;;;;;8154959;28;20457;-73
2020/12/28 18:08:20;;;;;;;565.75;114.85;;;;;;;;;;8160815;28;20485;-73
2020/12/28 18:12:23;;;;;;;749.33;166.98;;;;;;;;;;8159579;28;20473;-73
2020/12/28 18:16:27;;;;;;;232.20;44.58;;;;;;;;;;8161268;28;20385;-73
2020/12/28 18:20:30;;;;;;;415.67;75.47;;;;;;;;;;8142184;28;20646;-72
2020/12/28 18:24:34;;;;;;;479.45;103.55;;;;;;;;;;8160916;28;20393;-73
2020/12/28 18:28:38;;;;;;;330.83;73.60;;;;;;;;;;8158727;28;20485;-73
2020/12/28 18:32:42;;;;;;;330.70;91.85;;;;;;;;;;8160265;28;20483;-73
2020/12/28 18:36:45;;;;;;;217.63;59.28;;;;;;;;;;8158535;28;20421;-73
2020/12/28 18:40:53;;;;;;;234.05;62.15;;;;;;;;;;8155574;28;20488;-73
2020/12/28 18:44:57;;;;;;;79.37;21.00;;;;;;;;;;8156880;28;20370;-73
2020/12/28 18:49:00;;;;;;;299.75;71.68;;;;;;;;;;8146401;28;21937;-73
2020/12/28 18:53:04;;;;;;;191.98;43.22;;;;;;;;;;8150466;28;20469;-73
2020/12/28 18:57:07;;;;;;;224.63;47.72;;;;;;;;;;8158205;28;20495;-73
2020/12/28 19:01:10;;;;;;;93.13;24.10;;;;;;;;;;8149704;28;20477;-72
2020/12/28 19:05:13;;;;;;;79.78;19.77;;;;;;;;;;8154931;28;20504;-73
2020/12/28 19:09:24;;;;;;;48.95;13.95;;;;;;;;;;8157536;28;20482;-73
2020/12/28 19:13:28;;;;;;;40.17;13.30;;;;;;;;;;8149247;28;20461;-73
2020/12/28 19:17:32;;;;;;;127.55;29.35;;;;;;;;;;8156363;28;20453;-73
2020/12/28 19:21:36;;;;;;;207.07;50.65;;;;;;;;;;8154297;28;20488;-73
2020/12/28 19:25:39;;;;;;;180.30;46.60;;;;;;;;;;8155032;28;20064;-73
2020/12/28 19:29:42;;;;;;;92.68;27.60;;;;;;;;;;8158014;28;20387;-73
2020/12/28 19:33:46;;;;;;;42.20;14.60;;;;;;;;;;8155076;28;20458;-72
2020/12/28 19:37:51;;;;;;;48.53;15.20;;;;;;;;;;8155298;28;20077;-72
2020/12/28 19:41:57;;;;;;;38.60;12.85;;;;;;;;;;8157389;28;20080;-72
2020/12/28 19:46:00;;;;;;;50.22;15.82;;;;;;;;;;8156814;28;20054;-72
2020/12/28 19:50:04;;;;;;;61.55;20.10;;;;;;;;;;8144560;28;20050;-72
2020/12/28 19:54:08;;;;;;;47.60;14.68;;;;;;;;;;8155655;28;20374;-72
2020/12/28 19:58:14;;;;;;;115.90;37.20;;;;;;;;;;8157240;28;20362;-73
2020/12/28 20:02:17;;;;;;;125.40;37.63;;;;;;;;;;8154436;28;20489;-73
2020/12/28 20:06:24;;;;;;;63.03;22.60;;;;;;;;;;8157163;28;20073;-74
2020/12/28 20:10:27;;;;;;;30.70;12.18;;;;;;;;;;8152794;28;20378;-73
2020/12/28 20:14:31;;;;;;;304.75;84.90;;;;;;;;;;8157557;28;20351;-72
2020/12/28 20:18:34;;;;;;;231.50;59.35;;;;;;;;;;8154935;28;20096;-73
2020/12/28 20:22:38;;;;;;;43.40;17.15;;;;;;;;;;8158337;28;20460;-73
2020/12/28 20:26:42;;;;;;;19.02;9.50;;;;;;;;;;8157798;28;20488;-73
2020/12/28 20:30:45;;;;;;;43.08;15.15;;;;;;;;;;8152847;28;20393;-73
2020/12/28 20:34:50;;;;;;;147.82;42.22;;;;;;;;;;8155295;28;20504;-73
2020/12/28 20:39:18;;;;;;;70.88;22.33;;;;;;;;;;8147742;28;20853;-72
2020/12/28 20:43:24;;;;;;;108.05;30.55;;;;;;;;;;8158538;28;20484;-73
2020/12/28 20:47:27;;;;;;;104.38;30.25;;;;;;;;;;8160170;28;20676;-72
2020/12/28 20:51:36;;;;;;;154.77;47.72;;;;;;;;;;8161905;28;20350;-73
2020/12/28 20:55:40;;;;;;;76.15;17.55;;;;;;;;;;8146585;28;20500;-73
2020/12/28 20:59:44;;;;;;;89.22;26.05;;;;;;;;;;8160821;28;20046;-71
2020/12/28 21:03:47;;;;;;;58.42;19.60;;;;;;;;;;8162226;28;20406;-72
2020/12/28 21:07:51;;;;;;;52.28;17.70;;;;;;;;;;8162916;28;20381;-72
2020/12/28 21:11:54;;;;;;;47.78;17.23;;;;;;;;;;8160403;28;20371;-72
2020/12/28 21:15:57;;;;;;;52.05;20.92;;;;;;;;;;8161581;28;20372;-72
2020/12/28 21:20:00;;;;;;;44.17;18.42;;;;;;;;;;8160242;28;20420;-72
2020/12/28 21:24:03;;;;;;;48.35;20.13;;;;;;;;;;8160337;28;20400;-72
2020/12/28 21:28:07;;;;;;;44.88;17.85;;;;;;;;;;8190638;28;20050;-72
2020/12/28 21:32:10;;;;;;;55.67;20.98;;;;;;;;;;8188295;28;20380;-72
2020/12/28 21:36:19;;;;;;;37.80;15.77;;;;;;;;;;8190137;28;20080;-72
2020/12/28 21:40:22;;;;;;;28.58;12.77;;;;;;;;;;8172544;28;20443;-73
2020/12/28 21:44:27;;;;;;;28.50;13.10;;;;;;;;;;8190049;28;20424;-72
2020/12/28 21:48:30;;;;;;;85.97;31.15;;;;;;;;;;8188158;28;20392;-73
2020/12/28 21:52:33;;;;;;;54.08;20.52;;;;;;;;;;8188341;28;20376;-73
2020/12/28 21:56:37;;;;;;;38.45;17.73;;;;;;;;;;8188228;28;20484;-73
2020/12/28 22:00:40;;;;;;;53.58;24.67;;;;;;;;;;8160279;28;20362;-73
2020/12/28 22:04:43;;;;;;;31.98;15.45;;;;;;;;;;8162697;28;20346;-73
2020/12/28 22:08:46;;;;;;;31.55;14.85;;;;;;;;;;8160196;28;20474;-73
2020/12/28 22:12:57;;;;;;;15.30;7.45;;;;;;;;;;8159306;28;20508;-73
2020/12/28 22:17:06;;;;;;;44.00;19.90;;;;;;;;;;8158919;28;20382;-73
2020/12/28 22:21:10;;;;;;;20.85;9.82;;;;;;;;;;8159122;28;20412;-72
2020/12/28 22:25:14;;;;;;;17.90;7.65;;;;;;;;;;8142933;28;20493;-72
2020/12/28 22:29:17;;;;;;;21.60;10.63;;;;;;;;;;8159172;28;20473;-72
2020/12/28 22:33:20;;;;;;;22.33;9.00;;;;;;;;;;8158123;28;20484;-73
2020/12/28 22:37:23;;;;;;;15.68;6.72;;;;;;;;;;8159904;28;20485;-73
2020/12/28 22:41:27;;;;;;;7.43;4.20;;;;;;;;;;8158565;28;20072;-72
2020/12/28 22:45:31;;;;;;;6.70;3.20;;;;;;;;;;8160535;28;20373;-72
2020/12/28 22:49:35;;;;;;;11.52;5.07;;;;;;;;;;8156040;28;20484;-73
2020/12/28 22:53:39;;;;;;;8.20;4.70;;;;;;;;;;8158254;28;20050;-72
2020/12/28 22:57:42;;;;;;;15.02;5.55;;;;;;;;;;8159600;28;20054;-72
2020/12/28 23:01:46;;;;;;;11.95;4.72;;;;;;;;;;8153920;28;20373;-72
2020/12/28 23:05:49;;;;;;;9.98;4.68;;;;;;;;;;8173509;28;20374;-73
2020/12/28 23:09:52;;;;;;;13.27;5.57;;;;;;;;;;8157085;28;20485;-74
2020/12/28 23:13:59;;;;;;;7.95;3.50;;;;;;;;;;8155116;28;20480;-74
2020/12/28 23:18:02;;;;;;;7.70;4.00;;;;;;;;;;8142087;28;20425;-73
2020/12/28 23:22:06;;;;;;;23.08;6.10;;;;;;;;;;8156075;28;20477;-73
2020/12/28 23:26:14;;;;;;;15.35;6.07;;;;;;;;;;8159241;28;20491;-73
2020/12/28 23:30:19;;;;;;;25.25;6.20;;;;;;;;;;8156865;28;20385;-73
2020/12/28 23:34:23;;;;;;;17.52;6.75;;;;;;;;;;8158961;28;20377;-73
2020/12/28 23:38:26;;;;;;;13.70;6.18;;;;;;;;;;8157359;28;20380;-73
2020/12/28 23:42:34;;;;;;;10.35;3.92;;;;;;;;;;8157488;28;20473;-73
2020/12/28 23:46:38;;;;;;;;;;;;;;;;;;8187340;28;20382;-73
2020/12/28 23:50:45;;;;;;;10.73;4.07;;;;;;;;;;8170499;28;20351;-73
2020/12/28 23:54:48;;;;;;;6.43;3.50;;;;;;;;;;8170435;28;20358;-73
2020/12/28 23:59:17;;;;;;;7.55;3.90;;;;;;;;;;8187569;28;20551;-73
